Time;durP1;ratioP1;P1;durP2;ratioP2;P2;SDS_P1;SDS_P2;PMS_P1;PMS_P2;Temp;Humidity;BMP_temperature;BMP_pressure;BME280_temperature;BME280_humidity;BME280_pressure;Samples;Min_cycle;Max_cycle;Signal;HPM_P1;HPM_P2
2022/07/14 00:02:02;;;;;;;15.73;3.00;;;;;;;16.15;79.22;102192.56;5014489;28;20063;-48
2022/07/14 00:04:28;;;;;;;7.80;2.25;;;;;;;16.16;79.35;102178.69;5014535;28;20142;-51
2022/07/14 00:06:55;;;;;;;7.68;2.50;;;;;;;16.17;79.23;102177.50;5012772;28;20050;-49
2022/07/14 00:09:21;;;;;;;9.63;2.50;;;;;;;16.21;78.78;102175.44;5013997;28;20050;-49
2022/07/14 00:11:48;;;;;;;10.25;3.00;;;;;;;16.25;79.21;102181.41;5014339;28;20054;-48
2022/07/14 00:14:14;;;;;;;9.45;2.63;;;;;;;16.22;79.03;102178.88;5014538;28;20057;-48
2022/07/14 00:16:40;;;;;;;12.77;2.67;;;;;;;16.14;79.50;102175.72;5014241;28;20134;-49
2022/07/14 00:19:08;;;;;;;13.27;3.00;;;;;;;16.11;79.18;102179.28;5014048;28;20150;-49
2022/07/14 00:21:34;;;;;;;7.95;2.55;;;;;;;16.11;79.82;102179.28;5014188;28;20062;-52
2022/07/14 00:24:00;;;;;;;5.05;2.50;;;;;;;16.10;80.18;102177.78;5014281;28;20046;-49
2022/07/14 00:26:27;;;;;;;7.13;2.22;;;;;;;16.08;80.39;102176.72;5013517;28;20529;-52
2022/07/14 00:28:53;;;;;;;8.73;2.47;;;;;;;16.06;80.19;102184.47;5014083;28;20050;-51
2022/07/14 00:31:20;;;;;;;8.68;2.88;;;;;;;16.05;78.86;102180.28;5012835;28;20509;-50
2022/07/14 00:33:46;;;;;;;8.48;2.75;;;;;;;16.05;79.80;102182.97;5014150;28;20498;-50
2022/07/14 00:36:13;;;;;;;8.63;2.50;;;;;;;16.00;80.10;102179.69;5013195;28;20050;-50
2022/07/14 00:38:39;;;;;;;8.52;2.95;;;;;;;15.97;80.07;102183.28;5013849;28;20065;-52
2022/07/14 00:41:05;;;;;;;8.38;2.78;;;;;;;15.93;80.54;102184.59;5013275;28;20050;-50
2022/07/14 00:43:33;;;;;;;13.77;2.30;;;;;;;15.90;79.91;102194.28;5013480;28;20046;-54
2022/07/14 00:45:59;;;;;;;8.65;2.60;;;;;;;15.86;80.29;102196.34;5014071;28;20047;-51
2022/07/14 00:48:27;;;;;;;11.35;2.40;;;;;;;15.82;80.13;102201.09;5011435;28;20054;-50
2022/07/14 00:50:53;;;;;;;6.45;2.20;;;;;;;15.79;80.28;102196.63;5012938;28;20085;-49
2022/07/14 00:53:20;;;;;;;9.88;2.63;;;;;;;15.72;80.47;102206.84;5013127;28;20054;-53
2022/07/14 00:55:47;;;;;;;7.85;2.75;;;;;;;15.60;80.83;102211.09;5013104;28;20054;-50
2022/07/14 00:58:13;;;;;;;7.47;2.50;;;;;;;15.53;81.41;102206.75;5013860;28;20133;-53
2022/07/14 01:00:40;;;;;;;8.43;2.40;;;;;;;15.40;81.64;102206.06;5011720;28;20046;-51
2022/07/14 01:03:06;;;;;;;10.20;2.90;;;;;;;15.33;81.65;102200.94;5012835;28;20174;-50
2022/07/14 01:05:33;;;;;;;8.13;2.63;;;;;;;15.25;81.95;102195.06;5013686;28;20050;-50
2022/07/14 01:08:00;;;;;;;10.05;2.63;;;;;;;15.20;82.01;102198.28;5013500;28;20057;-54
2022/07/14 01:10:27;;;;;;;5.75;2.97;;;;;;;15.19;82.13;102204.13;5012434;28;20507;-50
2022/07/14 01:12:59;;;;;;;9.10;2.63;;;;;;;15.14;82.06;102205.44;5012715;28;20088;-54
2022/07/14 01:15:25;;;;;;;9.52;2.60;;;;;;;15.10;82.31;102190.63;5012790;28;20059;-51
2022/07/14 01:17:52;;;;;;;10.85;3.00;;;;;;;15.07;82.37;102180.78;5013744;28;20173;-50
2022/07/14 01:20:19;;;;;;;8.73;2.90;;;;;;;15.05;82.62;102183.16;5012679;28;20059;-54
2022/07/14 01:22:49;;;;;;;4.20;2.67;;;;;;;15.01;82.50;102184.03;5013016;28;20066;-53
2022/07/14 01:25:17;;;;;;;9.63;2.83;;;;;;;14.91;82.80;102187.81;5013240;28;20061;-51
2022/07/14 01:27:44;;;;;;;7.32;2.30;;;;;;;14.86;82.82;102196.38;5013033;28;20054;-47
2022/07/14 01:30:10;;;;;;;5.82;2.33;;;;;;;14.74;83.20;102183.78;5012665;28;20096;-50
2022/07/14 01:32:37;;;;;;;8.82;2.97;;;;;;;14.65;83.21;102189.06;5012243;28;20089;-52
2022/07/14 01:35:04;;;;;;;6.82;2.67;;;;;;;14.63;83.58;102188.75;5013365;28;20046;-48
2022/07/14 01:37:31;;;;;;;7.07;2.20;;;;;;;14.55;84.17;102188.22;5012572;28;20145;-53
2022/07/14 01:39:58;;;;;;;8.98;2.70;;;;;;;14.50;84.16;102198.72;5013361;28;20428;-48
2022/07/14 01:42:24;;;;;;;6.85;2.50;;;;;;;14.43;84.38;102205.06;5013486;28;20054;-50
2022/07/14 01:44:50;;;;;;;7.57;2.42;;;;;;;14.32;85.29;102204.63;5016896;28;20042;-47
2022/07/14 01:47:17;;;;;;;13.70;2.85;;;;;;;14.25;85.80;102197.56;5015877;28;20053;-47
2022/07/14 01:49:43;;;;;;;7.13;2.60;;;;;;;14.22;85.77;102197.66;5016328;28;20058;-57
2022/07/14 01:52:10;;;;;;;10.45;3.08;;;;;;;14.19;85.74;102190.47;5016088;28;20051;-50
2022/07/14 01:54:36;;;;;;;7.60;2.90;;;;;;;14.11;86.37;102189.19;5016711;28;20050;-53
2022/07/14 01:57:03;;;;;;;8.80;2.90;;;;;;;14.03;86.40;102188.66;5016283;28;20141;-54
2022/07/14 01:59:30;;;;;;;10.57;3.78;;;;;;;13.96;86.93;102191.56;5016284;28;20485;-48
2022/07/14 02:01:56;;;;;;;5.68;2.90;;;;;;;14.03;86.42;102192.06;5016393;28;20055;-49
2022/07/14 02:04:23;;;;;;;10.45;3.40;;;;;;;14.02;86.40;102189.81;5015395;28;20057;-49
2022/07/14 02:06:50;;;;;;;9.90;2.80;;;;;;;13.92;86.47;102193.59;5015214;28;20137;-50
2022/07/14 02:09:20;;;;;;;9.82;3.03;;;;;;;13.86;86.98;102190.69;5015930;28;20054;-48
2022/07/14 02:14:33;;;;;;;7.45;2.50;;;;;;;13.90;86.75;102195.94;5016119;28;20064;-51
2022/07/14 02:17:00;;;;;;;8.88;2.58;;;;;;;13.82;87.32;102194.63;5015832;28;20125;-52
2022/07/14 02:19:27;;;;;;;8.18;3.05;;;;;;;13.79;87.12;102200.84;5015421;28;20054;-50
2022/07/14 02:21:54;;;;;;;6.30;2.53;;;;;;;13.75;86.95;102184.88;5016087;28;20050;-54
2022/07/14 02:24:22;;;;;;;6.60;3.58;;;;;;;13.67;87.26;102184.34;5015867;28;20073;-53
2022/07/14 02:26:50;;;;;;;6.32;2.90;;;;;;;13.67;87.32;102189.69;5015530;28;20482;-49
2022/07/14 02:29:17;;;;;;;9.80;2.70;;;;;;;13.67;87.03;102181.66;5015828;28;20070;-49
2022/07/14 02:31:45;;;;;;;10.88;2.90;;;;;;;13.67;87.07;102183.59;5015404;28;20047;-49
2022/07/14 02:34:11;;;;;;;7.43;2.35;;;;;;;13.61;86.94;102183.34;5015879;28;20454;-52
2022/07/14 02:36:39;;;;;;;2.83;2.55;;;;;;;13.53;87.31;102178.66;5015656;28;20050;-48
2022/07/14 02:39:06;;;;;;;3.63;2.78;;;;;;;13.54;86.94;102180.91;5015706;28;20473;-53
2022/07/14 02:41:32;;;;;;;6.03;2.53;;;;;;;13.55;87.02;102176.31;5013701;28;20066;-48
2022/07/14 02:43:58;;;;;;;7.65;2.83;;;;;;;13.50;86.94;102182.91;5014390;28;20503;-49
2022/07/14 02:46:26;;;;;;;9.00;3.40;;;;;;;13.47;86.43;102173.06;5015801;28;20057;-51
2022/07/14 02:48:52;;;;;;;6.88;3.10;;;;;;;13.42;86.61;102175.50;5015336;28;20053;-48
2022/07/14 02:51:19;;;;;;;5.97;2.90;;;;;;;13.39;86.37;102174.44;5015893;28;20061;-52
2022/07/14 02:53:46;;;;;;;9.00;2.88;;;;;;;13.30;87.24;102177.72;5014322;28;20502;-51
2022/07/14 02:56:13;;;;;;;5.35;2.88;;;;;;;13.30;87.32;102176.97;5015536;28;20061;-50
2022/07/14 02:58:39;;;;;;;3.63;2.70;;;;;;;13.30;87.44;102177.72;5014812;28;20054;-53
2022/07/14 03:01:07;;;;;;;5.38;2.97;;;;;;;13.27;86.77;102175.88;5015321;28;20055;-48
2022/07/14 03:03:36;;;;;;;11.02;3.10;;;;;;;13.22;86.86;102183.66;5015720;28;20141;-51
2022/07/14 03:06:13;;;;;;;6.60;3.00;;;;;;;13.16;87.00;102178.13;5015075;28;20513;-50
2022/07/14 03:08:41;;;;;;;6.32;3.20;;;;;;;13.13;87.20;102186.94;5015345;28;20061;-50
2022/07/14 03:11:08;;;;;;;7.20;2.60;;;;;;;13.01;87.31;102182.28;5015086;28;20050;-48
2022/07/14 03:13:35;;;;;;;3.33;2.83;;;;;;;12.90;87.95;102192.50;5015425;28;20051;-52
2022/07/14 03:16:04;;;;;;;5.85;3.08;;;;;;;12.93;87.87;102183.63;5014452;28;20061;-51
2022/07/14 03:18:30;;;;;;;6.93;2.95;;;;;;;12.91;87.55;102184.06;5015153;28;20434;-47
2022/07/14 03:20:57;;;;;;;7.30;2.80;;;;;;;12.89;87.59;102183.72;5015493;28;20057;-46
2022/07/14 03:23:24;;;;;;;6.20;2.88;;;;;;;12.90;87.54;102193.25;5015119;28;20462;-47
2022/07/14 03:25:50;;;;;;;5.13;3.20;;;;;;;12.88;87.30;102184.16;5014244;28;20465;-50
2022/07/14 03:28:17;;;;;;;7.63;2.45;;;;;;;12.80;87.49;102172.88;5014874;28;20541;-47
2022/07/14 03:30:43;;;;;;;6.07;2.53;;;;;;;12.70;87.97;102171.25;5014940;28;20497;-47
2022/07/14 03:33:10;;;;;;;5.70;2.67;;;;;;;12.65;87.79;102177.84;5013938;28;20869;-48
2022/07/14 03:35:38;;;;;;;6.53;2.70;;;;;;;12.68;87.95;102170.91;5015054;28;20440;-49
2022/07/14 03:38:04;;;;;;;3.72;2.38;;;;;;;12.68;87.32;102170.91;5014858;28;20054;-48
2022/07/14 03:40:51;;;;;;;5.00;2.90;;;;;;;12.63;86.85;102168.72;5014601;28;20054;-48
2022/07/14 03:43:17;;;;;;;4.35;2.42;;;;;;;12.61;87.02;102166.47;5014383;28;20141;-47
2022/07/14 03:45:44;;;;;;;4.72;2.95;;;;;;;12.59;87.04;102160.06;5014885;28;20056;-46
2022/07/14 03:48:10;;;;;;;8.60;2.80;;;;;;;12.60;87.11;102161.56;5012132;28;20050;-49
2022/07/14 03:50:37;;;;;;;3.53;2.88;;;;;;;12.61;86.96;102157.72;5013798;28;20885;-48
2022/07/14 03:53:04;;;;;;;4.75;2.70;;;;;;;12.58;87.30;102156.63;5013066;28;20467;-48
2022/07/14 03:55:31;;;;;;;5.18;2.90;;;;;;;12.59;87.37;102170.75;5014824;28;20047;-48
2022/07/14 03:58:00;;;;;;;6.68;3.00;;;;;;;12.65;87.15;102163.72;5014183;28;20141;-48
2022/07/14 04:00:27;;;;;;;5.32;2.88;;;;;;;12.68;87.48;102157.53;5014522;28;20061;-51
2022/07/14 04:02:54;;;;;;;14.20;2.80;;;;;;;12.67;87.32;102177.41;5014613;28;20070;-48
2022/07/14 04:05:21;;;;;;;4.03;2.17;;;;;;;12.64;87.70;102172.91;5013578;28;20050;-51
2022/07/14 04:07:48;;;;;;;6.10;3.10;;;;;;;12.64;87.38;102175.59;5013990;28;20052;-49
2022/07/14 04:10:14;;;;;;;3.97;2.47;;;;;;;12.61;87.94;102174.50;5014310;28;20054;-47
2022/07/14 04:12:41;;;;;;;5.05;2.80;;;;;;;12.65;87.61;102179.75;5013860;28;20430;-48
2022/07/14 04:15:07;;;;;;;3.75;2.58;;;;;;;12.60;87.91;102178.34;5014010;28;20063;-50
2022/07/14 04:17:34;;;;;;;5.50;2.83;;;;;;;12.65;88.21;102177.84;5014603;28;20065;-50
2022/07/14 04:20:00;;;;;;;13.45;3.05;;;;;;;12.69;87.81;102173.16;5013926;28;20052;-50
2022/07/14 04:22:27;;;;;;;5.60;2.60;;;;;;;12.69;88.50;102164.38;5013338;28;20109;-49
2022/07/14 04:25:06;;;;;;;5.15;2.65;;;;;;;12.76;87.81;102166.88;5014470;28;20065;-53
2022/07/14 04:27:32;;;;;;;5.82;2.70;;;;;;;12.79;87.95;102171.41;5014316;28;20137;-48
2022/07/14 04:29:59;;;;;;;11.30;3.15;;;;;;;12.81;88.34;102165.59;5013642;28;20057;-47
2022/07/14 04:32:25;;;;;;;9.15;3.05;;;;;;;12.79;88.19;102166.06;5013923;28;20447;-49
2022/07/14 04:34:51;;;;;;;3.97;2.58;;;;;;;12.84;88.71;102172.78;5014015;28;20238;-53
2022/07/14 04:37:18;;;;;;;8.90;2.88;;;;;;;12.90;88.12;102166.50;5013333;28;20141;-47
2022/07/14 04:39:44;;;;;;;5.47;3.30;;;;;;;12.92;88.70;102168.78;5014077;28;20901;-47
2022/07/14 04:42:11;;;;;;;11.68;3.00;;;;;;;12.98;89.18;102172.44;5012200;28;20563;-47
2022/07/14 04:44:37;;;;;;;5.25;2.97;;;;;;;13.05;88.57;102168.84;5013426;28;20058;-50
2022/07/14 04:47:04;;;;;;;6.55;3.30;;;;;;;13.13;88.40;102164.81;5012291;28;20054;-50
2022/07/14 04:52:15;;;;;;;3.47;2.85;;;;;;;13.25;88.84;102167.53;5011487;28;20407;-49
2022/07/14 04:54:45;;;;;;;6.50;3.10;;;;;;;13.32;88.94;102169.28;5014099;28;20059;-46
2022/07/14 04:57:12;;;;;;;11.30;3.22;;;;;;;13.39;89.18;102171.75;5013782;28;20055;-48
2022/07/14 04:59:39;;;;;;;6.90;3.03;;;;;;;13.45;89.32;102174.66;5013477;28;20057;-49
2022/07/14 05:02:05;;;;;;;11.35;3.63;;;;;;;13.50;89.54;102166.88;5013560;28;20061;-48
2022/07/14 05:04:32;;;;;;;11.73;4.00;;;;;;;13.59;89.18;102166.25;5013849;28;20058;-50
2022/07/14 05:06:58;;;;;;;9.88;3.17;;;;;;;13.67;89.29;102173.63;5013139;28;20521;-46
2022/07/14 05:09:25;;;;;;;8.85;3.60;;;;;;;13.75;89.46;102171.50;5012587;28;20047;-52
2022/07/14 05:11:53;;;;;;;11.35;3.35;;;;;;;13.82;88.95;102176.66;5013121;28;20054;-52
2022/07/14 05:14:20;;;;;;;7.25;2.97;;;;;;;13.92;89.15;102175.59;5011799;28;20048;-50
2022/07/14 05:16:48;;;;;;;12.73;3.88;;;;;;;14.02;88.93;102181.78;5010961;28;20054;-51
2022/07/14 05:19:35;;;;;;;10.25;3.33;;;;;;;14.10;89.19;102169.69;5015074;28;20054;-51
2022/07/14 05:22:01;;;;;;;10.15;3.70;;;;;;;14.19;88.76;102172.47;5012651;28;20061;-50
2022/07/14 05:24:28;;;;;;;8.00;3.40;;;;;;;14.31;88.80;102177.09;5016816;28;20402;-49
2022/07/14 05:26:56;;;;;;;9.38;2.90;;;;;;;14.44;87.61;102176.34;5017178;28;20142;-47
2022/07/14 05:29:22;;;;;;;9.32;2.75;;;;;;;14.54;86.09;102180.63;5016450;28;20145;-47
2022/07/14 05:31:49;;;;;;;11.63;2.70;;;;;;;14.68;84.22;102175.53;5017052;28;20042;-48
2022/07/14 05:34:15;;;;;;;15.52;2.88;;;;;;;14.76;85.18;102173.38;5015763;28;20046;-46
2022/07/14 05:36:42;;;;;;;9.20;2.50;;;;;;;14.88;85.39;102175.25;5016364;28;20066;-48
2022/07/14 05:39:08;;;;;;;16.42;2.95;;;;;;;14.97;83.45;102175.34;5016781;28;20058;-47
2022/07/14 05:41:35;;;;;;;7.07;2.50;;;;;;;15.28;83.68;102177.34;5016688;28;20086;-46
2022/07/14 05:44:01;;;;;;;10.82;2.35;;;;;;;18.22;72.40;102174.47;5015578;28;20061;-50
2022/07/14 05:46:27;;;;;;;8.90;2.05;;;;;;;22.40;56.47;102176.34;5014369;28;20080;-47
2022/07/14 05:48:54;;;;;;;15.90;3.15;;;;;;;25.15;48.52;102169.22;5014654;28;20578;-50
2022/07/14 05:51:22;;;;;;;9.95;2.00;;;;;;;26.94;42.82;102173.34;5014547;28;20443;-50
2022/07/14 05:53:49;;;;;;;7.53;2.30;;;;;;;27.92;40.01;102173.44;5014481;28;20117;-49
2022/07/14 05:56:17;;;;;;;8.48;2.38;;;;;;;28.75;38.40;102179.13;5016434;28;20137;-48
2022/07/14 05:58:45;;;;;;;10.88;2.70;;;;;;;29.48;36.16;102182.88;5015880;28;20054;-48
2022/07/14 06:01:13;;;;;;;11.70;2.60;;;;;;;29.56;35.67;102183.66;5015290;28;20058;-49
2022/07/14 06:03:39;;;;;;;7.30;2.33;;;;;;;30.04;34.05;102187.56;5016315;28;20590;-51
2022/07/14 06:06:08;;;;;;;9.55;3.33;;;;;;;30.57;33.33;102197.28;5015543;28;20047;-49
2022/07/14 06:08:35;;;;;;;9.65;3.13;;;;;;;30.98;32.75;102190.72;5016246;28;20145;-49
2022/07/14 06:11:03;;;;;;;10.43;2.40;;;;;;;31.94;30.95;102186.19;5015422;28;20429;-49
2022/07/14 06:13:30;;;;;;;9.55;2.10;;;;;;;31.62;31.06;102195.06;5015690;28;20460;-47
2022/07/14 06:15:58;;;;;;;9.98;2.55;;;;;;;31.87;31.64;102187.69;5016262;28;20061;-50
2022/07/14 06:18:25;;;;;;;5.53;2.38;;;;;;;32.22;30.24;102183.16;5016296;28;20070;-48
2022/07/14 06:20:52;;;;;;;9.07;3.13;;;;;;;31.94;30.90;102189.69;5011478;28;20136;-55
2022/07/14 06:23:18;;;;;;;8.50;2.60;;;;;;;32.36;30.44;102197.41;5015398;28;20514;-47
2022/07/14 06:25:45;;;;;;;7.30;2.40;;;;;;;32.50;30.64;102195.84;5013418;28;20065;-46
2022/07/14 06:28:11;;;;;;;6.25;2.35;;;;;;;33.14;28.97;102192.25;5013219;28;20059;-50
2022/07/14 06:30:37;;;;;;;9.95;2.60;;;;;;;32.59;29.09;102197.25;5013718;28;20057;-53
2022/07/14 06:33:04;;;;;;;7.07;2.50;;;;;;;32.42;30.01;102195.16;5012518;28;20057;-48
2022/07/14 06:35:31;;;;;;;8.40;2.60;;;;;;;32.98;29.88;102190.94;5014766;28;20061;-46
2022/07/14 06:38:17;;;;;;;11.70;2.60;;;;;;;32.89;29.81;102191.53;5013258;28;20093;-50
2022/07/14 06:40:44;;;;;;;9.73;2.28;;;;;;;32.56;29.34;102201.88;5013599;28;20057;-46
2022/07/14 06:43:10;;;;;;;7.57;2.28;;;;;;;32.47;29.92;102203.19;5014739;28;20349;-48
2022/07/14 06:45:38;;;;;;;7.72;2.42;;;;;;;32.47;29.86;102199.72;5013545;28;20474;-50
2022/07/14 06:48:05;;;;;;;7.30;2.80;;;;;;;33.06;30.39;102199.88;5014896;28;20506;-51
2022/07/14 06:50:32;;;;;;;7.65;2.70;;;;;;;33.00;29.49;102190.34;5013807;28;20046;-49
2022/07/14 06:52:58;;;;;;;7.93;2.72;;;;;;;32.27;29.38;102198.00;5014727;28;20062;-50
2022/07/14 06:55:25;;;;;;;5.13;2.60;;;;;;;31.35;31.03;102201.00;5013566;28;20065;-49
2022/07/14 06:57:51;;;;;;;8.30;2.65;;;;;;;30.52;32.55;102193.38;5014924;28;20879;-49
2022/07/14 07:00:24;;;;;;;8.82;2.20;;;;;;;30.83;32.99;102194.94;5014086;28;20043;-52
2022/07/14 07:02:50;;;;;;;7.05;2.58;;;;;;;31.88;30.89;102183.66;5015097;28;20107;-49
2022/07/14 07:08:02;;;;;;;7.10;2.35;;;;;;;31.29;31.79;102178.44;5013243;28;20059;-50
2022/07/14 07:10:29;;;;;;;10.52;2.35;;;;;;;31.82;31.28;102170.09;5015310;28;20050;-49
2022/07/14 07:12:57;;;;;;;4.20;2.17;;;;;;;32.27;31.03;102171.19;5013439;28;20050;-48
2022/07/14 07:15:24;;;;;;;6.88;2.80;;;;;;;32.35;29.64;102154.63;5015097;28;20146;-49
2022/07/14 07:17:51;;;;;;;7.90;2.05;;;;;;;32.22;29.88;102154.88;5014725;28;20529;-47
2022/07/14 07:20:17;;;;;;;5.20;2.20;;;;;;;32.22;29.87;102152.13;5015279;28;20146;-50
2022/07/14 07:22:43;;;;;;;6.15;2.40;;;;;;;32.54;30.87;102149.34;5015089;28;20120;-49
2022/07/14 07:25:12;;;;;;;6.95;2.45;;;;;;;32.91;29.16;102147.59;5014884;28;20054;-51
2022/07/14 07:27:39;;;;;;;7.53;2.20;;;;;;;32.33;29.32;102146.91;5014814;28;20134;-51
2022/07/14 07:30:08;;;;;;;6.88;2.22;;;;;;;32.19;31.46;102150.47;5015084;28;20046;-50
2022/07/14 07:32:35;;;;;;;3.72;2.05;;;;;;;32.13;29.92;102145.88;5015062;28;20130;-51
2022/07/14 07:35:01;;;;;;;5.18;2.58;;;;;;;31.53;30.72;102152.38;5014927;28;20086;-51
2022/07/14 07:37:27;;;;;;;7.05;2.58;;;;;;;31.62;30.93;102145.53;5014811;28;20514;-49
2022/07/14 07:39:57;;;;;;;6.72;2.83;;;;;;;31.56;32.56;102150.53;5014446;28;20073;-47
2022/07/14 07:42:25;;;;;;;4.60;2.17;;;;;;;31.46;34.25;102139.34;5014426;28;20054;-46
2022/07/14 07:44:51;;;;;;;8.25;2.55;;;;;;;31.45;33.51;102146.88;5014892;28;20101;-53
2022/07/14 07:47:17;;;;;;;5.82;2.47;;;;;;;31.49;31.01;102141.00;5015228;28;20050;-49
2022/07/14 07:49:44;;;;;;;6.80;2.28;;;;;;;31.50;31.39;102134.94;5013214;28;20053;-47
2022/07/14 07:52:10;;;;;;;5.05;2.40;;;;;;;31.32;31.22;102132.59;5012735;28;20149;-49
2022/07/14 07:54:37;;;;;;;7.05;2.35;;;;;;;30.66;32.93;102139.78;5011968;28;20141;-51
2022/07/14 07:57:23;;;;;;;5.45;2.70;;;;;;;30.14;34.78;102130.13;5012567;28;20065;-47
2022/07/14 07:59:50;;;;;;;6.72;2.50;;;;;;;29.98;34.85;102128.59;5013712;28;20105;-47
2022/07/14 08:02:17;;;;;;;5.32;2.95;;;;;;;30.25;34.54;102132.53;5013289;28;20086;-45
2022/07/14 08:04:44;;;;;;;6.70;2.92;;;;;;;30.20;33.22;102125.19;5013382;28;20061;-48
2022/07/14 08:07:10;;;;;;;6.20;2.67;;;;;;;29.70;34.88;102132.88;5012291;28;20229;-52
2022/07/14 08:09:37;;;;;;;3.58;2.05;;;;;;;30.03;35.93;102122.22;5013422;28;20494;-47
2022/07/14 08:12:03;;;;;;;5.28;2.38;;;;;;;30.39;34.04;102122.16;5014280;28;20050;-48
2022/07/14 08:14:48;;;;;;;6.95;2.88;;;;;;;30.65;33.43;102121.81;5013087;28;20050;-49
2022/07/14 08:17:19;;;;;;;6.93;2.60;;;;;;;30.24;33.36;102119.34;5013534;28;20161;-53
2022/07/14 08:19:46;;;;;;;7.60;2.92;;;;;;;30.09;34.07;102114.56;5012824;28;20958;-46
2022/07/14 08:22:13;;;;;;;7.10;2.70;;;;;;;30.14;33.41;102121.88;5013782;28;20061;-49
2022/07/14 08:24:39;;;;;;;6.20;2.72;;;;;;;29.92;33.34;102111.56;5012809;28;20054;-48
2022/07/14 08:27:06;;;;;;;4.65;2.50;;;;;;;29.56;33.63;102111.59;5012771;28;20141;-49
2022/07/14 08:29:32;;;;;;;4.95;2.45;;;;;;;29.49;34.74;102102.78;5013400;28;20051;-49
2022/07/14 08:31:58;;;;;;;9.80;2.63;;;;;;;29.67;35.47;102103.03;5013744;28;20058;-51
2022/07/14 08:34:25;;;;;;;6.47;2.20;;;;;;;29.77;34.20;102101.25;5014225;28;20129;-51
2022/07/14 08:36:52;;;;;;;8.38;2.47;;;;;;;29.40;36.30;102100.50;5013753;28;20141;-50
2022/07/14 08:39:26;;;;;;;5.28;2.30;;;;;;;29.74;34.13;102088.59;5014251;28;20524;-50
2022/07/14 08:41:56;;;;;;;2.90;2.20;;;;;;;30.00;33.15;102088.34;5014133;28;20046;-50
2022/07/14 08:44:23;;;;;;;5.17;2.43;;;;;;;29.68;34.61;102093.53;5012705;28;20058;-48
2022/07/14 08:46:50;;;;;;;8.68;2.30;;;;;;;29.70;33.04;102096.47;5014285;28;20058;-48
2022/07/14 08:49:17;;;;;;;4.38;1.80;;;;;;;29.61;33.26;102091.47;5014231;28;20072;-54
2022/07/14 08:52:04;;;;;;;3.22;2.10;;;;;;;29.66;31.90;102098.81;5012677;28;20061;-53
2022/07/14 08:54:33;;;;;;;2.47;2.05;;;;;;;29.49;34.72;102097.28;5013762;28;20051;-50
2022/07/14 08:56:59;;;;;;;3.63;2.38;;;;;;;29.61;34.87;102096.97;5013818;28;20065;-50
2022/07/14 08:59:25;;;;;;;3.25;2.20;;;;;;;30.15;31.60;102115.84;5013166;28;20498;-52
2022/07/14 09:01:53;;;;;;;4.15;3.00;;;;;;;29.81;33.99;102104.38;5013893;28;20575;-49
2022/07/14 09:04:20;;;;;;;2.92;2.30;;;;;;;29.86;33.41;102106.97;5013843;28;20060;-53
2022/07/14 09:06:55;;;;;;;6.55;2.30;;;;;;;30.02;32.11;102110.50;5023639;28;20113;-50
2022/07/14 09:09:24;;;;;;;4.35;2.28;;;;;;;30.11;31.09;102115.47;5012108;28;20050;-55
2022/07/14 09:12:06;;;;;;;6.45;2.95;;;;;;;30.07;31.73;102101.38;5012242;28;20499;-54
2022/07/14 09:17:25;;;;;;;7.90;2.65;;;;;;;30.32;31.17;102117.38;5011659;28;20134;-54
2022/07/14 09:20:10;;;;;;;3.95;2.08;;;;;;;30.24;31.33;102117.34;5011670;28;20050;-52
2022/07/14 09:22:41;;;;;;;3.95;2.10;;;;;;;30.17;30.69;102118.06;5009744;28;20470;-51
2022/07/14 09:25:10;;;;;;;3.83;1.90;;;;;;;30.00;31.86;102115.81;5012633;28;20064;-53
2022/07/14 09:27:38;;;;;;;3.60;1.90;;;;;;;30.35;31.43;102113.53;5011533;28;20137;-54
2022/07/14 09:30:10;;;;;;;2.90;1.50;;;;;;;30.59;32.09;102117.78;5008529;28;20061;-51
2022/07/14 09:32:46;;;;;;;3.42;1.55;;;;;;;30.69;31.65;102118.72;5010745;28;20042;-54
2022/07/14 09:35:19;;;;;;;4.00;1.70;;;;;;;30.67;30.33;102115.78;5012710;28;20061;-54
2022/07/14 09:37:47;;;;;;;3.70;1.85;;;;;;;30.76;32.70;102109.75;5012185;28;20153;-54
2022/07/14 09:40:22;;;;;;;6.82;1.80;;;;;;;30.64;32.90;102112.13;5012373;28;20042;-50
2022/07/14 09:42:53;;;;;;;3.28;1.80;;;;;;;30.63;33.37;102102.41;5011632;28;20141;-53
2022/07/14 09:45:28;;;;;;;3.97;1.65;;;;;;;30.78;29.41;102094.16;5012544;28;20066;-54
2022/07/14 09:48:07;;;;;;;4.78;1.73;;;;;;;29.75;30.97;102095.56;5012762;28;20142;-54
2022/07/14 09:50:36;;;;;;;10.77;2.78;;;;;;;29.99;31.16;102097.13;5011749;28;20117;-51
2022/07/14 09:53:11;;;;;;;3.42;1.73;;;;;;;30.43;31.05;102106.00;5011012;28;20145;-52
2022/07/14 09:55:39;;;;;;;4.20;1.88;;;;;;;30.23;30.52;102112.41;5012486;28;20466;-52
2022/07/14 09:58:07;;;;;;;5.50;1.95;;;;;;;30.06;29.80;102102.66;5011954;28;20057;-52
2022/07/14 10:00:34;;;;;;;6.05;2.75;;;;;;;30.50;29.74;102097.78;5012416;28;20078;-54
2022/07/14 10:03:03;;;;;;;6.15;1.55;;;;;;;30.83;31.42;102097.97;5011555;28;20061;-53
2022/07/14 10:05:34;;;;;;;6.20;1.60;;;;;;;31.56;29.26;102090.00;5014429;28;20061;-52
2022/07/14 10:08:04;;;;;;;5.00;1.70;;;;;;;31.96;30.63;102096.25;5015207;28;20142;-54
2022/07/14 10:10:35;;;;;;;3.45;1.60;;;;;;;32.08;27.89;102097.25;5016365;28;20061;-51
2022/07/14 10:13:04;;;;;;;2.38;1.63;;;;;;;31.82;30.25;102095.03;5016125;28;20069;-54
2022/07/14 10:15:38;;;;;;;3.08;1.70;;;;;;;31.99;29.31;102099.91;5014958;28;20062;-53
2022/07/14 10:18:04;;;;;;;4.80;1.80;;;;;;;31.42;31.19;102092.97;5015944;28;20181;-52
2022/07/14 10:20:32;;;;;;;3.80;1.60;;;;;;;31.82;30.49;102101.25;5014227;28;20055;-52
2022/07/14 10:23:02;;;;;;;3.28;1.63;;;;;;;31.54;28.45;102096.03;5014470;28;20061;-50
2022/07/14 10:25:28;;;;;;;12.63;2.22;;;;;;;31.23;30.02;102103.63;5016056;28;20141;-53
2022/07/14 10:27:55;;;;;;;3.40;1.52;;;;;;;31.12;30.13;102104.78;5016364;28;20061;-52
2022/07/14 10:30:34;;;;;;;2.70;1.40;;;;;;;31.33;31.05;102092.78;5015386;28;20126;-52
2022/07/14 10:33:20;;;;;;;2.75;1.80;;;;;;;31.24;28.31;102102.34;5015238;28;20161;-52
2022/07/14 10:35:59;;;;;;;2.30;1.70;;;;;;;30.63;32.10;102107.91;5015111;28;20065;-48
2022/07/14 10:38:47;;;;;;;4.10;1.70;;;;;;;30.78;31.68;102102.41;5015036;28;20053;-54
2022/07/14 10:41:43;;;;;;;4.60;1.45;;;;;;;30.89;31.93;102103.31;5013460;28;20054;-51
2022/07/14 10:44:15;;;;;;;1.60;1.13;;;;;;;31.07;32.49;102105.69;5015405;28;20054;-50
2022/07/14 10:46:45;;;;;;;2.08;1.27;;;;;;;30.92;30.21;102093.94;5015232;28;20058;-49
2022/07/14 10:49:14;;;;;;;1.63;1.25;;;;;;;31.05;28.32;102088.25;5014713;28;20069;-50
2022/07/14 10:51:51;;;;;;;1.88;1.30;;;;;;;31.36;28.49;102091.69;5012856;28;20454;-55
2022/07/14 10:54:27;;;;;;;3.80;1.38;;;;;;;31.14;31.15;102084.97;5013764;28;20486;-55
2022/07/14 10:57:17;;;;;;;1.80;1.25;;;;;;;31.14;31.65;102084.97;5014458;28;20058;-50
2022/07/14 10:59:45;;;;;;;2.75;1.33;;;;;;;30.53;29.77;102090.47;5014537;28;20105;-55
2022/07/14 11:02:12;;;;;;;1.35;1.25;;;;;;;30.43;31.55;102087.50;5014104;28;21159;-48
2022/07/14 11:05:03;;;;;;;3.78;1.33;;;;;;;30.46;30.41;102102.16;5013768;28;20066;-49
2022/07/14 11:07:50;;;;;;;1.95;1.30;;;;;;;29.90;30.28;102092.88;5014579;28;20058;-51
2022/07/14 11:10:16;;;;;;;2.42;1.08;;;;;;;29.26;29.52;102090.91;5009992;28;20565;-53
2022/07/14 12:09:42;;;;;;;2.50;1.15;;;;;;;25.52;43.85;102106.69;5104611;27;93742;-68
2022/07/14 12:12:13;;;;;;;1.08;1.00;;;;;;;25.34;42.76;102101.91;5067654;28;20072;-66
2022/07/14 12:14:51;;;;;;;1.98;1.13;;;;;;;25.13;43.21;102109.06;5068341;28;20476;-67
2022/07/14 12:17:20;;;;;;;4.93;1.17;;;;;;;24.98;43.75;102103.22;5069895;28;20083;-66
2022/07/14 12:19:47;;;;;;;3.67;1.17;;;;;;;24.86;44.24;102106.00;5069544;28;20133;-66
2022/07/14 12:22:15;;;;;;;2.10;1.00;;;;;;;24.77;44.90;102111.78;5069513;28;20050;-67
2022/07/14 12:24:41;;;;;;;3.13;1.52;;;;;;;24.70;45.68;102100.72;5068748;28;20666;-67
2022/07/14 12:27:11;;;;;;;4.43;1.13;;;;;;;24.73;44.98;102105.88;5070931;28;20087;-70
2022/07/14 12:29:50;;;;;;;2.20;1.23;;;;;;;24.67;45.47;102105.19;5071213;28;20053;-73
2022/07/14 12:57:22;;;;;;;6.13;1.17;;;;;;;23.99;40.45;102063.25;5086098;27;1922983;-77
2022/07/14 12:59:49;;;;;;;5.07;1.38;;;;;;;24.41;39.43;102064.00;5120681;27;20423;-76
2022/07/14 13:02:21;;;;;;;4.35;1.27;;;;;;;24.62;40.11;102067.84;5078296;28;20570;-75
2022/07/14 13:04:50;;;;;;;7.13;1.45;;;;;;;24.60;38.76;102083.94;5078565;28;20480;-79